Time;durP1;ratioP1;P1;durP2;ratioP2;P2;SDS_P1;SDS_P2;PMS_P1;PMS_P2;Temp;Humidity;BMP_temperature;BMP_pressure;BME280_temperature;BME280_humidity;BME280_pressure;Samples;Min_cycle;Max_cycle;Signal;HPM_P1;HPM_P2
2021/12/09 00:02:05;;;;;;;29.90;15.07;;;2.30;1.00;;;;;;5034105;28;20911;-72
2021/12/09 00:04:31;;;;;;;27.73;13.93;;;2.30;1.00;;;;;;5035106;28;20160;-72
2021/12/09 00:06:59;;;;;;;24.70;13.93;;;2.30;1.00;;;;;;5034691;28;20468;-72
2021/12/09 00:09:25;;;;;;;22.30;13.40;;;2.40;1.00;;;;;;5035029;28;20441;-72
2021/12/09 00:11:51;;;;;;;24.20;13.90;;;2.40;1.00;;;;;;5034655;28;20449;-73
2021/12/09 00:14:24;;;;;;;21.23;12.90;;;2.40;1.00;;;;;;5034025;28;20171;-72
2021/12/09 00:16:52;;;;;;;23.17;14.50;;;2.50;1.00;;;;;;5034674;28;20434;-72
2021/12/09 00:19:18;;;;;;;25.80;14.50;;;2.50;1.00;;;;;;5033994;28;20437;-72
2021/12/09 00:21:43;;;;;;;32.90;16.00;;;2.50;1.00;;;;;;5034885;28;20887;-71
2021/12/09 00:24:10;;;;;;;35.80;15.80;;;2.40;1.00;;;;;;5033651;28;20171;-71
2021/12/09 00:26:35;;;;;;;30.70;14.50;;;2.40;1.00;;;;;;5033760;28;20194;-72
2021/12/09 00:29:02;;;;;;;32.13;15.07;;;2.40;1.00;;;;;;5034688;28;20493;-73
2021/12/09 00:31:28;;;;;;;19.63;14.10;;;2.40;1.00;;;;;;5034388;28;20708;-72
2021/12/09 00:33:56;;;;;;;27.33;14.97;;;2.50;1.00;;;;;;5033492;28;20549;-71
2021/12/09 00:36:27;;;;;;;22.67;14.23;;;2.50;1.00;;;;;;5032731;28;20442;-72
2021/12/09 00:38:57;;;;;;;30.40;11.53;;;2.50;1.00;;;;;;5033761;28;20456;-72
2021/12/09 00:41:23;;;;;;;29.87;14.07;;;2.60;1.00;;;;;;5034196;28;20501;-72
2021/12/09 00:43:49;;;;;;;31.30;13.73;;;2.60;1.00;;;;;;5033715;28;20950;-72
2021/12/09 00:46:15;;;;;;;33.07;14.63;;;2.60;1.00;;;;;;5034015;28;20214;-72
2021/12/09 00:48:41;;;;;;;41.50;13.97;;;2.60;1.00;;;;;;5034537;28;20402;-72
2021/12/09 00:51:08;;;;;;;27.87;12.77;;;2.60;1.00;;;;;;5034029;28;20195;-72
2021/12/09 00:53:34;;;;;;;31.67;14.17;;;2.50;1.00;;;;;;5031323;28;20986;-71
2021/12/09 00:56:01;;;;;;;26.43;17.03;;;2.50;1.00;;;;;;5034074;28;20450;-71
2021/12/09 00:58:26;;;;;;;32.40;14.90;;;2.50;1.00;;;;;;5033134;28;20509;-72
2021/12/09 01:00:52;;;;;;;23.93;12.90;;;2.60;1.00;;;;;;5033627;28;20549;-71
2021/12/09 01:03:18;;;;;;;28.07;13.90;;;2.50;1.00;;;;;;5033261;28;20661;-72
2021/12/09 01:05:46;;;;;;;26.27;14.17;;;2.60;1.00;;;;;;5033416;28;20198;-71
2021/12/09 01:08:12;;;;;;;30.03;13.13;;;2.60;1.00;;;;;;5034058;28;20485;-71
2021/12/09 01:10:38;;;;;;;32.73;14.50;;;2.50;1.00;;;;;;5033050;28;20473;-72
2021/12/09 01:13:04;;;;;;;28.07;15.20;;;2.50;1.00;;;;;;5032915;28;20450;-72
2021/12/09 01:15:30;;;;;;;30.77;15.37;;;2.40;1.00;;;;;;5033114;28;20491;-72
2021/12/09 01:17:56;;;;;;;24.97;14.03;;;2.40;1.00;;;;;;5033859;28;20163;-72
2021/12/09 01:20:25;;;;;;;35.47;15.10;;;2.40;1.00;;;;;;5033440;28;20791;-72
2021/12/09 01:22:53;;;;;;;28.33;15.30;;;2.40;1.00;;;;;;5032850;28;20926;-72
2021/12/09 01:25:20;;;;;;;34.63;13.27;;;2.40;1.00;;;;;;5032999;28;20434;-71
2021/12/09 01:27:48;;;;;;;32.63;14.37;;;2.40;1.00;;;;;;5032528;28;20446;-72
2021/12/09 01:30:18;;;;;;;27.93;14.17;;;2.40;1.00;;;;;;5033305;28;21141;-71
2021/12/09 01:32:50;;;;;;;37.73;17.60;;;2.40;1.00;;;;;;5032557;28;20488;-73
2021/12/09 01:35:36;;;;;;;32.57;15.53;;;2.40;1.00;;;;;;5031415;28;20939;-71
2021/12/09 01:38:10;;;;;;;34.50;14.77;;;2.40;1.00;;;;;;5032509;28;20428;-72
2021/12/09 01:40:37;;;;;;;33.87;15.07;;;2.40;1.00;;;;;;5033486;28;20957;-72
2021/12/09 01:43:03;;;;;;;39.87;18.80;;;2.40;1.00;;;;;;5031838;28;20522;-71
2021/12/09 01:45:29;;;;;;;32.83;15.53;;;2.40;1.00;;;;;;5032771;28;20488;-72
2021/12/09 01:47:54;;;;;;;33.27;13.70;;;2.40;1.00;;;;;;5032794;28;20414;-72
2021/12/09 01:50:22;;;;;;;28.33;16.30;;;2.50;1.00;;;;;;5032202;28;20461;-71
2021/12/09 01:52:48;;;;;;;38.57;15.67;;;2.40;1.00;;;;;;5032281;28;20186;-72
2021/12/09 01:55:15;;;;;;;28.23;13.83;;;2.50;1.00;;;;;;5032785;28;20471;-71
2021/12/09 01:57:41;;;;;;;38.07;19.40;;;2.50;1.00;;;;;;5033147;28;20485;-70
2021/12/09 02:00:11;;;;;;;28.87;15.70;;;2.50;1.00;;;;;;5032417;28;20422;-72
2021/12/09 02:02:38;;;;;;;35.73;15.30;;;2.40;1.00;;;;;;5032211;28;20489;-71
2021/12/09 02:05:05;;;;;;;30.80;16.30;;;2.40;1.00;;;;;;5031746;28;20418;-71
2021/12/09 02:07:31;;;;;;;40.13;16.43;;;2.40;1.00;;;;;;5013319;28;20403;-72
2021/12/09 02:09:57;;;;;;;27.03;14.20;;;2.30;1.00;;;;;;5022129;28;20456;-72
2021/12/09 02:12:22;;;;;;;38.90;14.87;;;2.40;1.00;;;;;;5031211;28;20461;-71
2021/12/09 02:14:48;;;;;;;29.93;14.57;;;2.40;1.00;;;;;;5032716;28;20915;-73
2021/12/09 02:17:14;;;;;;;26.83;14.27;;;2.40;1.00;;;;;;5032770;28;20664;-72
2021/12/09 02:19:42;;;;;;;26.27;14.37;;;2.40;1.00;;;;;;5032256;28;20167;-73
2021/12/09 02:22:14;;;;;;;30.97;14.83;;;2.40;1.00;;;;;;5031598;28;20187;-72
2021/12/09 02:24:41;;;;;;;28.87;17.83;;;2.30;1.00;;;;;;5032109;28;20417;-71
2021/12/09 02:27:07;;;;;;;28.13;14.13;;;2.30;1.00;;;;;;5032668;28;20452;-71
2021/12/09 02:29:33;;;;;;;31.40;16.30;;;2.30;1.00;;;;;;5032520;28;20430;-71
2021/12/09 02:32:01;;;;;;;32.30;15.47;;;2.20;1.00;;;;;;5032265;28;20450;-74
2021/12/09 02:34:27;;;;;;;33.33;17.67;;;2.30;1.00;;;;;;5032543;28;20418;-71
2021/12/09 02:36:53;;;;;;;33.33;14.70;;;2.30;1.00;;;;;;5032033;28;20442;-72
2021/12/09 02:39:19;;;;;;;48.17;18.07;;;2.30;1.00;;;;;;5031985;28;20413;-71
2021/12/09 02:41:48;;;;;;;40.20;16.77;;;2.30;1.00;;;;;;5031925;28;20597;-71
2021/12/09 02:44:18;;;;;;;28.33;16.27;;;2.30;1.00;;;;;;5031820;28;20402;-71
2021/12/09 02:46:46;;;;;;;36.13;18.87;;;2.30;1.00;;;;;;5032299;28;20430;-72
2021/12/09 02:49:14;;;;;;;35.97;16.50;;;2.30;1.00;;;;;;5032552;28;20437;-71
2021/12/09 02:51:41;;;;;;;33.93;18.87;;;2.30;1.00;;;;;;5032170;28;20946;-71
2021/12/09 02:54:09;;;;;;;39.13;17.30;;;2.40;1.00;;;;;;5031595;28;20456;-72
2021/12/09 02:56:35;;;;;;;39.50;15.10;;;2.40;1.00;;;;;;5031950;28;20461;-72
2021/12/09 02:59:01;;;;;;;37.97;17.10;;;2.30;1.00;;;;;;5032052;28;20422;-71
2021/12/09 03:01:34;;;;;;;40.70;16.73;;;2.30;1.00;;;;;;5032819;28;20655;-72
2021/12/09 03:04:01;;;;;;;33.10;16.43;;;2.40;1.00;;;;;;5034877;28;20843;-71
2021/12/09 03:06:39;;;;;;;39.47;16.20;;;2.40;1.00;;;;;;5035986;28;20438;-72
2021/12/09 03:09:09;;;;;;;43.23;20.17;;;2.30;1.00;;;;;;5035928;28;20495;-71
2021/12/09 03:11:36;;;;;;;44.57;18.00;;;2.40;1.00;;;;;;5036173;28;20394;-71
2021/12/09 03:14:03;;;;;;;42.73;20.20;;;2.40;1.00;;;;;;5034969;28;20493;-73
2021/12/09 03:16:29;;;;;;;27.83;13.87;;;2.40;1.00;;;;;;5034949;28;20943;-72
2021/12/09 03:19:03;;;;;;;36.47;17.87;;;2.30;1.00;;;;;;5035848;28;20791;-71
2021/12/09 03:21:38;;;;;;;38.80;17.10;;;2.30;1.00;;;;;;5036043;28;20402;-73
2021/12/09 03:24:06;;;;;;;37.37;17.97;;;2.30;1.00;;;;;;5034718;28;20946;-72
2021/12/09 03:26:38;;;;;;;31.67;16.83;;;2.30;1.00;;;;;;5035602;28;20659;-71
2021/12/09 03:29:07;;;;;;;33.17;16.07;;;2.30;1.00;;;;;;5035621;28;20788;-71
2021/12/09 03:31:33;;;;;;;51.50;17.30;;;2.20;1.00;;;;;;5035799;28;20409;-72
2021/12/09 03:33:59;;;;;;;27.83;13.90;;;2.20;1.00;;;;;;5034673;28;20453;-71
2021/12/09 03:36:28;;;;;;;35.70;17.70;;;2.20;1.00;;;;;;5034851;28;20993;-72
2021/12/09 03:38:58;;;;;;;48.80;14.87;;;2.30;1.00;;;;;;5035314;28;20406;-71
2021/12/09 03:41:25;;;;;;;40.73;15.70;;;2.20;1.00;;;;;;5035373;28;20432;-71
2021/12/09 03:43:50;;;;;;;35.50;16.27;;;2.20;1.00;;;;;;5034602;28;20508;-71
2021/12/09 03:46:16;;;;;;;30.23;15.00;;;2.30;1.00;;;;;;5033760;28;21049;-71
2021/12/09 03:48:42;;;;;;;38.07;17.17;;;2.30;1.00;;;;;;5035487;28;20218;-72
2021/12/09 03:51:08;;;;;;;34.50;16.90;;;2.30;1.00;;;;;;5035123;28;20438;-71
2021/12/09 03:53:33;;;;;;;34.63;15.47;;;2.20;1.00;;;;;;5033950;28;20196;-71
2021/12/09 03:55:59;;;;;;;45.03;20.50;;;2.20;1.00;;;;;;5034785;28;20221;-71
2021/12/09 03:58:25;;;;;;;37.27;17.40;;;2.20;1.00;;;;;;5035386;28;20250;-72
2021/12/09 04:00:51;;;;;;;32.27;16.20;;;2.20;1.00;;;;;;5035051;28;20258;-71
2021/12/09 04:03:18;;;;;;;36.43;20.30;;;2.10;1.00;;;;;;5034535;28;20406;-71
2021/12/09 04:05:45;;;;;;;39.80;18.60;;;2.10;1.00;;;;;;5034737;28;20434;-71
2021/12/09 04:08:12;;;;;;;33.00;16.73;;;2.10;1.00;;;;;;5034112;28;20437;-70
2021/12/09 04:10:38;;;;;;;43.00;17.97;;;2.10;1.00;;;;;;5034741;28;20842;-70
2021/12/09 04:13:04;;;;;;;28.43;15.03;;;2.00;1.00;;;;;;5031229;28;20458;-72
2021/12/09 04:15:30;;;;;;;38.73;15.63;;;2.10;1.00;;;;;;5033164;28;20438;-72
2021/12/09 04:17:56;;;;;;;45.43;17.60;;;2.00;1.00;;;;;;5035077;28;20403;-71
2021/12/09 04:20:22;;;;;;;37.87;17.97;;;2.00;1.00;;;;;;5034704;28;20509;-71
2021/12/09 04:22:49;;;;;;;32.30;14.63;;;2.00;1.00;;;;;;5033628;28;20512;-71
2021/12/09 04:25:23;;;;;;;27.60;16.03;;;2.00;1.00;;;;;;5034323;28;20164;-71
2021/12/09 04:27:50;;;;;;;37.17;16.40;;;2.00;1.00;;;;;;5034830;28;20489;-71
2021/12/09 04:30:17;;;;;;;38.37;17.10;;;2.00;1.00;;;;;;5034516;28;20433;-71
2021/12/09 04:32:43;;;;;;;30.00;13.97;;;2.00;1.00;;;;;;5033380;28;20544;-72
2021/12/09 04:35:10;;;;;;;34.53;16.80;;;2.00;1.00;;;;;;5033722;28;20919;-71
2021/12/09 04:37:36;;;;;;;50.30;17.10;;;2.00;1.00;;;;;;5034427;28;20406;-70
2021/12/09 04:40:04;;;;;;;33.33;17.43;;;2.00;1.00;;;;;;5034285;28;20985;-72
2021/12/09 04:42:30;;;;;;;28.57;16.57;;;2.00;1.00;;;;;;5033157;28;20426;-71
2021/12/09 04:44:55;;;;;;;29.93;14.80;;;1.90;1.00;;;;;;5034017;28;20394;-72
2021/12/09 04:47:21;;;;;;;40.03;16.27;;;1.90;1.00;;;;;;5032908;28;20187;-72
2021/12/09 04:49:47;;;;;;;44.63;19.63;;;1.90;1.00;;;;;;5033566;28;20179;-73
2021/12/09 04:52:13;;;;;;;24.10;15.80;;;1.90;1.00;;;;;;5032788;28;20187;-71
2021/12/09 04:54:42;;;;;;;34.33;17.07;;;2.00;1.00;;;;;;5034330;28;20430;-71
2021/12/09 04:57:12;;;;;;;34.23;15.73;;;2.00;1.00;;;;;;5033739;28;20437;-71
2021/12/09 04:59:39;;;;;;;34.53;17.73;;;2.00;1.00;;;;;;5034045;28;20441;-72
2021/12/09 05:02:11;;;;;;;27.27;16.90;;;2.00;1.00;;;;;;5032996;28;20753;-72
2021/12/09 05:04:36;;;;;;;29.30;15.03;;;2.00;1.00;;;;;;5034110;28;20486;-72
2021/12/09 05:07:02;;;;;;;33.87;15.20;;;2.10;1.00;;;;;;5032232;28;20990;-71
2021/12/09 05:09:29;;;;;;;37.90;15.93;;;2.10;1.00;;;;;;5033314;28;20259;-72
2021/12/09 05:11:55;;;;;;;39.10;17.27;;;2.20;1.00;;;;;;5033141;28;20414;-70
2021/12/09 05:14:22;;;;;;;28.93;15.47;;;2.10;1.00;;;;;;5032879;28;20425;-72
2021/12/09 05:16:53;;;;;;;35.70;17.27;;;2.20;1.00;;;;;;5032994;28;20656;-70
2021/12/09 05:19:20;;;;;;;28.83;16.87;;;2.20;1.00;;;;;;5033551;28;20406;-72
2021/12/09 05:21:46;;;;;;;42.60;17.13;;;2.20;1.00;;;;;;5033186;28;20426;-72
2021/12/09 05:24:14;;;;;;;41.27;17.27;;;2.20;1.00;;;;;;5032890;28;20402;-71
2021/12/09 05:26:49;;;;;;;39.23;15.97;;;2.20;1.00;;;;;;5033146;28;20955;-71
2021/12/09 05:29:16;;;;;;;32.83;15.60;;;2.20;1.00;;;;;;5033300;28;20406;-72
2021/12/09 05:34:29;;;;;;;38.27;17.10;;;2.10;1.00;;;;;;5033325;28;20489;-71
2021/12/09 05:36:54;;;;;;;33.37;15.60;;;2.00;1.00;;;;;;5032805;28;20437;-71
2021/12/09 05:39:21;;;;;;;42.47;18.57;;;2.00;1.00;;;;;;5033161;28;20417;-71
2021/12/09 05:41:47;;;;;;;38.00;17.27;;;2.10;1.00;;;;;;5033286;28;20199;-73
2021/12/09 05:44:14;;;;;;;28.07;15.00;;;2.10;1.00;;;;;;5032104;28;20760;-71
2021/12/09 05:46:43;;;;;;;38.07;17.00;;;2.10;1.00;;;;;;5033210;28;20495;-71
2021/12/09 05:49:10;;;;;;;39.13;18.87;;;2.10;1.00;;;;;;5032172;28;20498;-71
2021/12/09 05:51:36;;;;;;;32.33;16.63;;;2.00;1.00;;;;;;5033037;28;20414;-71
2021/12/09 05:54:04;;;;;;;28.20;16.50;;;2.00;1.00;;;;;;5031980;28;20822;-72
2021/12/09 05:56:30;;;;;;;36.80;16.50;;;2.00;1.00;;;;;;5032661;28;20441;-71
2021/12/09 05:58:56;;;;;;;28.63;14.70;;;1.90;1.00;;;;;;5032666;28;20425;-71
2021/12/09 06:01:22;;;;;;;44.13;15.83;;;1.90;1.00;;;;;;5032947;28;20171;-72
2021/12/09 06:03:48;;;;;;;37.93;16.60;;;1.90;1.00;;;;;;5031665;28;20505;-72
2021/12/09 06:06:14;;;;;;;29.87;14.20;;;1.90;1.00;;;;;;5031718;28;20504;-71
2021/12/09 06:08:40;;;;;;;32.30;14.70;;;2.00;1.00;;;;;;5033042;28;20884;-72
2021/12/09 06:11:11;;;;;;;34.47;16.33;;;1.90;1.00;;;;;;5032335;28;20254;-71
2021/12/09 06:13:37;;;;;;;49.17;19.27;;;1.90;1.00;;;;;;5031743;28;20465;-71
2021/12/09 06:16:05;;;;;;;32.13;15.87;;;1.90;1.00;;;;;;5032596;28;20866;-72
2021/12/09 06:18:31;;;;;;;36.07;20.40;;;1.80;1.00;;;;;;5032735;28;20482;-71
2021/12/09 06:20:57;;;;;;;36.72;17.15;;;1.90;1.00;;;;;;5032697;28;20407;-71
2021/12/09 06:23:23;;;;;;;33.90;18.50;;;1.80;1.00;;;;;;5030979;28;20225;-72
2021/12/09 06:25:50;;;;;;;25.03;15.77;;;1.90;1.00;;;;;;5032231;28;20278;-72
2021/12/09 06:28:17;;;;;;;32.77;16.90;;;1.90;1.00;;;;;;5032560;28;20167;-72
2021/12/09 06:30:44;;;;;;;30.27;15.70;;;1.90;1.00;;;;;;5021444;28;20430;-70
2021/12/09 06:33:09;;;;;;;32.80;16.70;;;1.90;1.00;;;;;;5031703;28;20482;-71
2021/12/09 06:35:36;;;;;;;29.40;15.30;;;1.90;1.00;;;;;;5030884;28;20434;-71
2021/12/09 06:38:03;;;;;;;30.13;16.05;;;1.90;1.00;;;;;;5036214;28;20174;-71
2021/12/09 06:40:29;;;;;;;34.60;16.63;;;1.90;1.00;;;;;;5036036;28;20171;-72
2021/12/09 06:42:56;;;;;;;41.70;18.20;;;1.90;1.00;;;;;;5035286;28;20433;-73
2021/12/09 06:45:23;;;;;;;36.80;16.80;;;1.90;1.00;;;;;;5036205;28;20199;-74
2021/12/09 06:47:49;;;;;;;30.53;16.30;;;1.80;1.00;;;;;;5036558;28;20402;-71
2021/12/09 06:50:18;;;;;;;32.43;17.47;;;1.80;1.00;;;;;;5035805;28;20442;-71
2021/12/09 06:52:44;;;;;;;38.47;16.83;;;1.80;1.00;;;;;;5035547;28;20445;-72
2021/12/09 06:55:12;;;;;;;33.80;15.47;;;1.80;1.00;;;;;;5035361;28;20926;-71
2021/12/09 06:57:39;;;;;;;31.00;15.37;;;1.80;1.00;;;;;;5035904;28;20433;-70
2021/12/09 07:00:10;;;;;;;32.83;16.97;;;1.80;1.00;;;;;;5036208;28;20481;-72
2021/12/09 07:02:36;;;;;;;37.47;17.30;;;1.80;1.00;;;;;;5034604;28;20521;-70
2021/12/09 07:05:03;;;;;;;25.93;13.17;;;1.80;1.00;;;;;;5034904;28;20639;-73
2021/12/09 07:07:29;;;;;;;32.55;16.15;;;1.80;1.00;;;;;;5034438;28;20636;-69
2021/12/09 07:09:55;;;;;;;36.50;16.17;;;1.70;1.00;;;;;;5036280;28;20176;-70
2021/12/09 07:12:21;;;;;;;30.63;14.50;;;1.80;1.00;;;;;;5035024;28;20519;-70
2021/12/09 07:14:46;;;;;;;34.70;16.10;;;1.80;1.00;;;;;;5036133;28;20647;-70
2021/12/09 07:17:12;;;;;;;27.27;13.57;;;1.70;1.00;;;;;;5035882;28;20206;-70
2021/12/09 07:19:38;;;;;;;38.30;18.50;;;1.70;1.00;;;;;;5035530;28;20247;-71
2021/12/09 07:22:04;;;;;;;40.60;18.30;;;1.80;1.00;;;;;;5034755;28;20205;-72
2021/12/09 07:24:31;;;;;;;27.33;16.15;;;1.80;1.00;;;;;;5035893;28;20406;-71
2021/12/09 07:26:59;;;;;;;34.57;17.60;;;1.80;1.00;;;;;;5035509;28;20207;-69
2021/12/09 07:29:26;;;;;;;27.40;14.20;;;1.80;1.00;;;;;;5034623;28;20465;-72
2021/12/09 07:31:52;;;;;;;37.22;15.73;;;1.80;1.00;;;;;;5035448;28;20414;-70
2021/12/09 07:34:18;;;;;;;39.20;16.60;;;1.70;1.00;;;;;;5033432;28;20652;-72
2021/12/09 07:36:44;;;;;;;44.97;18.63;;;1.70;1.00;;;;;;5034751;28;20192;-71
2021/12/09 07:39:10;;;;;;;37.03;15.20;;;1.70;1.00;;;;;;5035410;28;20178;-72
2021/12/09 07:41:36;;;;;;;28.77;16.10;;;1.80;1.00;;;;;;5035701;28;20395;-72
2021/12/09 07:44:02;;;;;;;30.70;15.80;;;1.80;1.00;;;;;;5034501;28;20442;-72
2021/12/09 07:46:37;;;;;;;32.42;14.60;;;1.80;1.00;;;;;;5035389;28;20453;-71
2021/12/09 07:49:06;;;;;;;32.88;16.45;;;1.70;1.00;;;;;;5032648;28;20187;-71
2021/12/09 07:51:32;;;;;;;35.67;15.80;;;1.70;1.00;;;;;;5035171;28;20209;-70
2021/12/09 07:53:59;;;;;;;24.70;12.80;;;1.70;1.00;;;;;;5034370;28;20290;-71
2021/12/09 07:56:25;;;;;;;26.08;15.07;;;1.70;1.00;;;;;;5034580;28;20988;-72
2021/12/09 07:58:50;;;;;;;38.07;17.37;;;1.70;1.00;;;;;;5035328;28;20176;-71
2021/12/09 08:01:16;;;;;;;31.03;15.10;;;1.80;1.00;;;;;;5035174;28;20172;-70
2021/12/09 08:03:42;;;;;;;31.67;14.10;;;1.80;1.00;;;;;;5034228;28;20198;-72
2021/12/09 08:06:08;;;;;;;40.60;16.70;;;1.80;1.00;;;;;;5034843;28;20528;-72
2021/12/09 08:08:33;;;;;;;32.87;15.97;;;1.80;1.00;;;;;;5034810;28;20505;-70
2021/12/09 08:10:59;;;;;;;31.53;16.77;;;1.80;1.00;;;;;;5034776;28;20178;-70
2021/12/09 08:13:25;;;;;;;29.57;14.33;;;1.80;1.00;;;;;;5033748;28;20635;-72
2021/12/09 08:15:53;;;;;;;29.93;16.93;;;1.90;1.00;;;;;;5034982;28;20660;-71
2021/12/09 08:20:49;;;;;;;33.13;13.63;;;1.80;1.00;;;;;;5034876;28;20540;-72
2021/12/09 08:23:15;;;;;;;39.97;18.17;;;1.90;1.00;;;;;;5034198;28;20221;-71
2021/12/09 08:25:41;;;;;;;37.17;16.10;;;1.90;1.00;;;;;;5034814;28;20184;-70
2021/12/09 08:28:07;;;;;;;29.57;14.87;;;1.80;1.00;;;;;;5035301;28;20242;-70
2021/12/09 08:30:33;;;;;;;45.30;15.40;;;1.90;1.00;;;;;;5033318;28;20779;-71
2021/12/09 08:32:59;;;;;;;28.00;14.90;;;1.90;1.00;;;;;;5033620;28;20261;-71
2021/12/09 08:35:24;;;;;;;36.97;19.20;;;1.90;1.00;;;;;;5034712;28;20415;-71
2021/12/09 08:37:51;;;;;;;29.07;14.70;;;1.90;1.00;;;;;;5033695;28;20183;-69
2021/12/09 08:40:18;;;;;;;29.47;13.93;;;1.90;1.00;;;;;;5034630;28;20461;-72
2021/12/09 08:42:44;;;;;;;28.97;15.60;;;1.90;1.00;;;;;;5033608;28;20464;-70
2021/12/09 08:45:11;;;;;;;30.47;15.17;;;2.00;1.00;;;;;;5034471;28;20896;-71
2021/12/09 08:47:38;;;;;;;34.80;16.17;;;2.00;1.00;;;;;;5034424;28;20410;-71
2021/12/09 08:50:06;;;;;;;34.47;14.40;;;2.00;1.00;;;;;;5032678;28;20226;-72
2021/12/09 08:52:32;;;;;;;37.63;15.57;;;1.90;1.00;;;;;;5033439;28;20449;-72
2021/12/09 08:54:57;;;;;;;34.20;15.23;;;1.90;1.00;;;;;;5034059;28;20485;-71
2021/12/09 08:57:23;;;;;;;29.07;14.40;;;1.90;1.00;;;;;;5034276;28;20163;-71
2021/12/09 08:59:49;;;;;;;30.73;15.30;;;1.90;1.00;;;;;;5033957;28;20155;-71
2021/12/09 09:02:16;;;;;;;34.57;15.13;;;1.90;1.00;;;;;;5033230;28;20402;-70
2021/12/09 09:04:42;;;;;;;42.27;17.13;;;2.00;1.00;;;;;;5034167;28;20425;-72
2021/12/09 09:07:08;;;;;;;31.90;16.37;;;1.90;1.00;;;;;;5033947;28;20418;-70
2021/12/09 09:09:34;;;;;;;38.97;15.73;;;2.00;1.00;;;;;;5033319;28;20449;-71
2021/12/09 09:12:06;;;;;;;31.95;16.25;;;2.00;1.00;;;;;;5033156;28;20763;-72
2021/12/09 09:14:32;;;;;;;30.60;16.57;;;2.00;1.00;;;;;;5033936;28;20573;-72
2021/12/09 09:16:58;;;;;;;27.40;13.80;;;2.00;1.00;;;;;;5033666;28;20423;-70
2021/12/09 09:19:24;;;;;;;34.63;17.27;;;2.00;1.00;;;;;;5032561;28;20418;-72
2021/12/09 09:21:51;;;;;;;30.17;17.90;;;1.90;1.00;;;;;;5032690;28;20935;-72
2021/12/09 09:24:16;;;;;;;30.70;16.57;;;2.00;1.00;;;;;;5033140;28;20492;-71
2021/12/09 09:26:42;;;;;;;30.30;18.03;;;2.00;1.00;;;;;;5033052;28;20445;-70
2021/12/09 09:29:08;;;;;;;28.50;17.50;;;2.00;1.00;;;;;;5032747;28;20175;-73
2021/12/09 09:31:35;;;;;;;36.57;17.17;;;2.00;1.00;;;;;;5032014;28;20175;-72
2021/12/09 09:34:04;;;;;;;47.93;17.50;;;2.00;1.00;;;;;;5032649;28;20536;-71
2021/12/09 09:36:31;;;;;;;42.00;17.00;;;2.00;1.00;;;;;;5033200;28;20491;-72
2021/12/09 09:39:11;;;;;;;31.30;16.60;;;2.00;1.00;;;;;;5031079;28;20426;-71
2021/12/09 09:41:37;;;;;;;40.87;14.63;;;2.10;1.00;;;;;;5021175;28;20414;-70
2021/12/09 09:44:13;;;;;;;31.93;15.00;;;2.10;1.00;;;;;;5026967;28;20423;-69
2021/12/09 09:46:40;;;;;;;39.67;17.60;;;2.20;1.00;;;;;;5012951;28;20181;-72
2021/12/09 09:49:06;;;;;;;26.87;14.47;;;2.20;1.00;;;;;;5022318;28;20422;-72
2021/12/09 09:51:34;;;;;;;26.30;15.20;;;2.20;1.00;;;;;;5033084;28;20414;-71
2021/12/09 09:54:00;;;;;;;31.67;16.00;;;2.30;1.00;;;;;;5031430;28;20462;-72
2021/12/09 09:56:27;;;;;;;33.87;16.70;;;2.30;1.00;;;;;;5032995;28;20418;-69
2021/12/09 09:59:05;;;;;;;30.00;16.63;;;2.30;1.00;;;;;;5032489;28;20469;-72
2021/12/09 10:01:34;;;;;;;43.80;14.07;;;2.20;1.00;;;;;;5032937;28;20493;-70
2021/12/09 10:04:14;;;;;;;31.53;16.20;;;2.20;1.00;;;;;;5032017;28;20516;-70
2021/12/09 10:06:44;;;;;;;37.03;15.47;;;2.20;1.00;;;;;;5032288;28;20773;-71
2021/12/09 10:09:12;;;;;;;30.97;16.03;;;2.20;1.00;;;;;;5032214;28;20426;-72
2021/12/09 10:11:38;;;;;;;32.87;16.70;;;2.30;1.00;;;;;;5032159;28;20409;-71
2021/12/09 10:14:08;;;;;;;38.13;16.90;;;2.30;1.00;;;;;;5031104;28;20457;-73
2021/12/09 10:16:34;;;;;;;34.13;16.60;;;2.30;1.00;;;;;;5032877;28;20495;-71
2021/12/09 10:19:00;;;;;;;35.40;19.50;;;2.30;1.00;;;;;;5032641;28;20418;-73
2021/12/09 10:21:29;;;;;;;35.53;15.97;;;2.30;1.00;;;;;;5032701;28;20163;-71
2021/12/09 10:24:08;;;;;;;34.30;18.33;;;2.30;1.00;;;;;;5031633;28;20171;-72
2021/12/09 10:26:40;;;;;;;30.40;17.20;;;2.30;1.00;;;;;;5032067;28;20437;-72
2021/12/09 10:29:15;;;;;;;30.27;14.93;;;2.30;1.00;;;;;;5030901;28;20795;-72
2021/12/09 10:31:46;;;;;;;45.37;15.77;;;2.30;1.00;;;;;;5032309;28;20456;-72
2021/12/09 10:34:36;;;;;;;25.53;13.83;;;2.30;1.00;;;;;;5031085;28;20462;-73
2021/12/09 10:37:22;;;;;;;43.20;16.40;;;2.30;1.00;;;;;;5032681;28;20915;-72
2021/12/09 10:39:56;;;;;;;39.40;17.70;;;2.30;1.00;;;;;;5031726;28;20480;-71
2021/12/09 10:42:29;;;;;;;40.27;17.13;;;2.30;1.00;;;;;;5031808;28;20877;-72
2021/12/09 10:44:58;;;;;;;33.83;13.63;;;2.20;1.00;;;;;;5031895;28;20434;-72
2021/12/09 10:47:49;;;;;;;32.63;16.10;;;2.20;1.00;;;;;;5031939;28;20403;-72
2021/12/09 10:50:41;;;;;;;42.93;18.40;;;2.20;1.00;;;;;;5032087;28;20923;-71
2021/12/09 10:55:47;;;;;;;32.77;16.53;;;2.20;1.00;;;;;;5032304;28;20446;-72
2021/12/09 10:58:15;;;;;;;32.27;15.93;;;2.20;1.00;;;;;;5032142;28;20457;-71
2021/12/09 11:00:41;;;;;;;29.47;16.43;;;2.20;1.00;;;;;;5032510;28;20922;-73
2021/12/09 11:03:09;;;;;;;43.73;14.90;;;2.10;1.00;;;;;;5030286;28;20450;-72
2021/12/09 11:05:42;;;;;;;33.97;16.60;;;2.20;1.00;;;;;;5032201;28;20206;-72
2021/12/09 11:08:15;;;;;;;38.43;17.20;;;2.20;1.00;;;;;;5032061;28;20425;-73
2021/12/09 11:10:47;;;;;;;30.33;14.83;;;2.20;1.00;;;;;;5031369;28;20480;-71
2021/12/09 11:13:15;;;;;;;37.73;18.30;;;2.20;1.00;;;;;;5031613;28;20446;-71
2021/12/09 11:15:55;;;;;;;30.23;18.23;;;2.30;1.00;;;;;;5032197;28;20529;-72
2021/12/09 11:18:39;;;;;;;28.87;15.97;;;2.30;1.00;;;;;;5032783;28;20394;-73
2021/12/09 11:21:29;;;;;;;46.53;17.93;;;2.30;1.00;;;;;;5032457;28;20437;-72
2021/12/09 11:24:04;;;;;;;40.40;18.53;;;2.20;1.00;;;;;;5033981;28;20729;-72
2021/12/09 11:26:56;;;;;;;43.80;19.83;;;2.10;1.00;;;;;;5035770;28;20449;-71
2021/12/09 11:29:36;;;;;;;44.63;16.60;;;2.10;1.00;;;;;;5036208;28;20410;-72
2021/12/09 11:32:13;;;;;;;32.53;14.33;;;2.10;1.00;;;;;;5019010;28;20994;-72
2021/12/09 11:34:45;;;;;;;37.50;16.90;;;2.10;1.00;;;;;;5016449;28;20889;-71
2021/12/09 11:40:23;;;;;;;34.43;15.73;;;2.20;1.00;;;;;;5035061;28;20423;-71
2021/12/09 11:42:57;;;;;;;37.07;16.93;;;2.20;1.00;;;;;;5034452;28;20434;-73
2021/12/09 11:45:27;;;;;;;35.43;16.07;;;2.20;1.00;;;;;;5035066;28;20935;-70
2021/12/09 11:47:54;;;;;;;27.63;15.03;;;2.30;1.00;;;;;;5035825;28;20406;-71
2021/12/09 11:50:45;;;;;;;33.70;17.70;;;2.40;1.00;;;;;;5034187;28;20464;-72
2021/12/09 11:53:14;;;;;;;36.10;15.27;;;2.30;1.00;;;;;;5034769;28;20765;-73
2021/12/09 11:55:45;;;;;;;36.67;16.77;;;2.30;1.00;;;;;;5035460;28;20445;-73
2021/12/09 11:58:24;;;;;;;35.17;18.17;;;2.30;1.00;;;;;;5034894;28;20407;-73
2021/12/09 12:12:53;;;;;;;43.13;18.50;;;2.30;1.00;;;;;;5034556;28;20465;-73
2021/12/09 12:24:31;;;;;;;31.23;17.07;;;2.20;1.00;;;;;;5034019;28;20756;-71
2021/12/09 12:29:47;;;;;;;34.73;17.43;;;2.10;1.00;;;;;;5035336;28;20418;-72
2021/12/09 12:35:43;;;;;;;32.87;14.63;;;2.10;1.00;;;;;;5022586;28;20441;-73
2021/12/09 12:40:50;;;;;;;30.25;17.30;;;2.10;1.00;;;;;;5035016;28;20167;-70
2021/12/09 12:43:54;;;;;;;41.35;17.25;;;2.10;1.00;;;;;;5034170;28;20176;-71
2021/12/09 12:46:52;;;;;;;35.77;17.60;;;2.20;1.00;;;;;;5034814;28;20190;-72
2021/12/09 12:52:03;;;;;;;43.43;16.60;;;2.20;1.00;;;;;;5034940;28;20402;-72
2021/12/09 12:54:46;;;;;;;50.83;17.37;;;2.20;1.00;;;;;;5033375;28;20425;-73
2021/12/09 12:57:33;;;;;;;41.53;17.30;;;2.20;1.00;;;;;;5034644;28;20426;-71
2021/12/09 13:00:12;;;;;;;33.83;17.33;;;2.20;1.00;;;;;;5034622;28;20918;-73
2021/12/09 13:03:04;;;;;;;36.17;14.80;;;2.20;1.00;;;;;;5033617;28;20398;-70
2021/12/09 13:05:50;;;;;;;43.43;17.13;;;2.20;1.00;;;;;;5034521;28;20993;-70
2021/12/09 13:08:42;;;;;;;35.67;15.60;;;2.30;1.00;;;;;;5034590;28;20414;-73
2021/12/09 13:11:16;;;;;;;42.80;15.17;;;2.20;1.00;;;;;;5033768;28;20411;-72
2021/12/09 13:14:01;;;;;;;37.73;17.80;;;2.30;1.00;;;;;;5033380;28;20870;-72
2021/12/09 13:16:59;;;;;;;33.77;16.50;;;2.30;1.00;;;;;;5034247;28;20437;-70
2021/12/09 13:19:36;;;;;;;40.93;19.13;;;2.20;1.00;;;;;;5034250;28;20407;-71
2021/12/09 13:22:09;;;;;;;39.43;16.10;;;2.20;1.00;;;;;;5033279;28;20402;-72
2021/12/09 13:25:00;;;;;;;32.67;17.20;;;2.20;1.00;;;;;;5034063;28;20418;-72
2021/12/09 13:28:02;;;;;;;34.60;16.17;;;2.10;1.00;;;;;;5034222;28;20879;-71
2021/12/09 13:31:02;;;;;;;30.53;16.73;;;2.00;1.00;;;;;;5032068;28;20429;-70
2021/12/09 13:36:40;;;;;;;37.63;17.70;;;2.20;1.00;;;;;;5034221;28;20464;-70
2021/12/09 13:47:30;;;;;;;35.23;17.50;;;2.30;1.00;;;;;;5033016;28;20436;-73
2021/12/09 13:55:24;;;;;;;34.83;17.67;;;2.40;1.00;;;;;;5033610;28;20409;-71
2021/12/09 13:58:05;;;;;;;34.83;16.47;;;2.30;1.00;;;;;;5033588;28;20406;-70
2021/12/09 14:00:42;;;;;;;53.87;18.53;;;2.30;1.00;;;;;;5033680;28;20394;-72